Time;durP1;ratioP1;P1;durP2;ratioP2;P2;SDS_P1;SDS_P2;PMS_P1;PMS_P2;Temp;Humidity;BMP_temperature;BMP_pressure;BME280_temperature;BME280_humidity;BME280_pressure;Samples;Min_cycle;Max_cycle;Signal;HPM_P1;HPM_P2
2021/11/21 00:00:32;;;;;;;1.90;1.80;;;19.80;49.20;;;;;;5089885;28;20023;-58
2021/11/21 00:02:58;;;;;;;1.88;1.77;;;19.80;49.30;;;;;;5089345;28;20354;-58
2021/11/21 00:05:24;;;;;;;2.28;2.08;;;19.70;49.20;;;;;;5088414;28;20028;-58
2021/11/21 00:07:49;;;;;;;2.53;2.10;;;19.80;49.20;;;;;;5089699;28;20103;-58
2021/11/21 00:10:15;;;;;;;2.30;1.95;;;19.80;49.20;;;;;;5089389;28;20064;-58
2021/11/21 00:12:40;;;;;;;3.05;2.50;;;19.80;49.20;;;;;;5089726;28;20039;-58
2021/11/21 00:15:06;;;;;;;2.42;2.22;;;19.80;49.30;;;;;;5091813;28;20028;-58
2021/11/21 00:17:32;;;;;;;2.42;2.22;;;19.80;49.20;;;;;;5091591;28;20359;-58
2021/11/21 00:19:57;;;;;;;2.80;2.60;;;19.80;49.20;;;;;;5092668;28;20093;-59
2021/11/21 00:22:25;;;;;;;3.38;2.15;;;19.80;49.30;;;;;;5092898;28;20093;-58
2021/11/21 00:24:50;;;;;;;2.10;2.00;;;19.80;49.30;;;;;;5092943;28;20028;-58
2021/11/21 00:27:16;;;;;;;2.45;2.25;;;19.70;49.20;;;;;;5092992;28;20031;-58
2021/11/21 00:29:41;;;;;;;2.60;2.40;;;19.80;49.30;;;;;;5093077;28;20059;-58
2021/11/21 00:32:07;;;;;;;2.30;2.10;;;19.70;49.20;;;;;;5092731;28;20252;-58
2021/11/21 00:34:32;;;;;;;2.03;1.90;;;19.70;49.20;;;;;;5092599;28;20039;-58
2021/11/21 00:36:58;;;;;;;2.33;2.05;;;19.80;49.30;;;;;;5092489;28;20425;-58
2021/11/21 00:39:24;;;;;;;2.13;1.92;;;19.70;49.20;;;;;;5092652;28;20069;-58
2021/11/21 00:41:50;;;;;;;2.03;1.90;;;19.70;49.20;;;;;;5092790;28;20223;-58
2021/11/21 00:44:15;;;;;;;2.03;1.92;;;19.80;50.00;;;;;;5092763;28;20078;-58
2021/11/21 00:46:41;;;;;;;2.33;2.13;;;19.70;49.20;;;;;;5092530;28;20056;-58
2021/11/21 00:49:12;;;;;;;1.80;1.70;;;19.70;49.20;;;;;;5092111;28;20099;-58
2021/11/21 00:51:38;;;;;;;2.40;2.20;;;19.70;49.20;;;;;;5092434;28;20516;-58
2021/11/21 00:54:23;;;;;;;2.70;2.47;;;19.80;49.30;;;;;;5092486;28;20047;-58
2021/11/21 00:56:49;;;;;;;2.38;2.17;;;19.70;49.20;;;;;;5092183;28;20032;-58
2021/11/21 00:59:19;;;;;;;1.70;1.60;;;19.70;49.20;;;;;;5092163;28;20441;-58
2021/11/21 01:01:48;;;;;;;2.05;1.95;;;19.70;49.30;;;;;;5092398;28;20031;-58
2021/11/21 01:04:13;;;;;;;2.92;2.50;;;19.70;49.20;;;;;;5090731;28;20031;-58
2021/11/21 01:06:39;;;;;;;2.65;2.05;;;19.70;49.30;;;;;;5092461;28;20024;-58
2021/11/21 01:09:04;;;;;;;2.13;1.95;;;19.70;49.30;;;;;;5091822;28;20428;-58
2021/11/21 01:11:30;;;;;;;2.65;2.30;;;19.70;49.20;;;;;;5090504;28;20107;-58
2021/11/21 01:13:55;;;;;;;2.20;2.00;;;19.70;49.20;;;;;;5091929;28;20373;-59
2021/11/21 01:16:21;;;;;;;2.45;2.20;;;19.70;49.20;;;;;;5092068;28;20421;-58
2021/11/21 01:18:46;;;;;;;2.20;2.00;;;19.80;49.30;;;;;;5091830;28;20077;-58
2021/11/21 01:21:12;;;;;;;2.10;1.90;;;19.70;49.20;;;;;;5091841;28;20024;-58
2021/11/21 01:23:38;;;;;;;2.88;2.28;;;19.70;49.30;;;;;;5091835;28;20380;-58
2021/11/21 01:26:03;;;;;;;2.20;2.00;;;19.70;49.20;;;;;;5091181;28;20036;-58
2021/11/21 01:28:29;;;;;;;2.00;1.85;;;19.70;49.30;;;;;;5091723;28;20021;-58
2021/11/21 01:30:54;;;;;;;2.67;2.22;;;19.70;49.30;;;;;;5091049;28;20403;-58
2021/11/21 01:33:20;;;;;;;2.20;2.05;;;19.70;49.30;;;;;;5091361;28;20016;-58
2021/11/21 01:35:45;;;;;;;2.30;2.10;;;19.70;49.30;;;;;;5091209;28;20028;-58
2021/11/21 01:38:11;;;;;;;2.85;2.17;;;19.70;49.20;;;;;;5091049;28;20051;-58
2021/11/21 01:40:36;;;;;;;2.70;2.50;;;19.70;49.30;;;;;;5089945;28;20073;-58
2021/11/21 01:43:02;;;;;;;2.30;2.00;;;19.70;49.30;;;;;;5091207;28;20013;-58
2021/11/21 01:45:28;;;;;;;2.30;2.10;;;19.70;49.30;;;;;;5091406;28;20154;-58
2021/11/21 01:47:53;;;;;;;2.47;2.13;;;19.70;49.20;;;;;;5090916;28;20031;-58
2021/11/21 01:50:25;;;;;;;2.50;2.08;;;19.70;49.30;;;;;;5090851;28;20050;-58
2021/11/21 01:52:51;;;;;;;2.58;2.38;;;19.70;49.30;;;;;;5091025;28;20140;-58
2021/11/21 01:55:17;;;;;;;2.28;2.08;;;19.70;49.30;;;;;;5091075;28;20129;-58
2021/11/21 01:57:42;;;;;;;2.53;2.05;;;19.70;49.30;;;;;;5089579;28;20100;-58
2021/11/21 02:00:09;;;;;;;2.35;2.15;;;19.70;49.30;;;;;;5090440;28;20054;-58
2021/11/21 02:02:34;;;;;;;2.40;2.20;;;19.70;49.30;;;;;;5090780;28;20110;-58
2021/11/21 02:05:00;;;;;;;2.97;2.25;;;19.70;49.30;;;;;;5090632;28;20442;-58
2021/11/21 02:07:28;;;;;;;2.45;2.25;;;19.70;49.30;;;;;;5089571;28;20080;-58
2021/11/21 02:09:54;;;;;;;2.03;1.92;;;19.70;49.30;;;;;;5090774;28;20031;-58
2021/11/21 02:12:19;;;;;;;2.10;1.90;;;19.70;49.20;;;;;;5090530;28;20385;-58
2021/11/21 02:14:45;;;;;;;2.47;2.28;;;19.70;49.30;;;;;;5090761;28;20023;-58
2021/11/21 02:17:10;;;;;;;2.55;2.22;;;19.70;49.30;;;;;;5090194;28;20028;-57
2021/11/21 02:19:36;;;;;;;3.40;2.75;;;19.70;49.20;;;;;;5089256;28;20381;-58
2021/11/21 02:22:02;;;;;;;2.13;1.92;;;19.70;49.30;;;;;;5090248;28;20069;-58
2021/11/21 02:24:27;;;;;;;2.38;2.17;;;19.70;49.30;;;;;;5089011;28;20652;-58
2021/11/21 02:26:54;;;;;;;2.28;2.08;;;19.70;49.30;;;;;;5090397;28;20484;-58
2021/11/21 02:29:19;;;;;;;2.30;2.10;;;19.70;49.30;;;;;;5089254;28;20382;-58
2021/11/21 02:31:45;;;;;;;2.70;2.50;;;19.70;49.20;;;;;;5090195;28;20079;-58
2021/11/21 02:34:10;;;;;;;2.28;1.95;;;19.70;49.30;;;;;;5090607;28;20111;-58
2021/11/21 02:36:36;;;;;;;1.95;1.75;;;19.70;49.30;;;;;;5089956;28;20124;-58
2021/11/21 02:39:01;;;;;;;2.65;2.40;;;19.70;49.30;;;;;;5090258;28;20020;-58
2021/11/21 02:41:27;;;;;;;3.03;2.63;;;19.70;49.30;;;;;;5090577;28;20131;-57
2021/11/21 02:43:53;;;;;;;2.42;2.22;;;19.60;49.20;;;;;;5090462;28;20013;-58
2021/11/21 02:46:19;;;;;;;2.47;2.25;;;19.60;49.30;;;;;;5090178;28;20028;-58
2021/11/21 02:48:44;;;;;;;2.20;1.98;;;19.60;49.30;;;;;;5090116;28;20028;-58
2021/11/21 02:51:12;;;;;;;2.75;2.35;;;19.70;49.30;;;;;;5089647;28;20091;-58
2021/11/21 02:53:38;;;;;;;2.20;2.00;;;19.60;49.20;;;;;;5090324;28;20027;-58
2021/11/21 02:56:14;;;;;;;2.50;2.30;;;19.60;49.30;;;;;;5090117;28;20128;-58
2021/11/21 02:58:40;;;;;;;2.72;2.53;;;19.60;49.20;;;;;;5089991;28;20523;-58
2021/11/21 03:01:08;;;;;;;2.75;2.38;;;19.70;49.30;;;;;;5089786;28;20024;-58
2021/11/21 03:03:34;;;;;;;2.33;2.13;;;19.60;49.30;;;;;;5089951;28;20470;-58
2021/11/21 03:06:00;;;;;;;2.88;2.47;;;19.60;49.30;;;;;;5090028;28;20081;-58
2021/11/21 03:08:25;;;;;;;2.60;2.40;;;19.60;49.90;;;;;;5089956;28;20048;-58
2021/11/21 03:10:52;;;;;;;2.90;2.60;;;19.60;49.20;;;;;;5089762;28;20498;-58
2021/11/21 03:13:18;;;;;;;2.13;1.92;;;19.60;49.30;;;;;;5089835;28;20406;-58
2021/11/21 03:15:43;;;;;;;3.08;2.47;;;19.60;49.20;;;;;;5089700;28;20039;-58
2021/11/21 03:18:09;;;;;;;2.20;2.00;;;19.60;49.30;;;;;;5089940;28;20100;-58
2021/11/21 03:20:35;;;;;;;2.70;2.50;;;19.60;49.30;;;;;;5089939;28;20099;-58
2021/11/21 03:23:02;;;;;;;2.85;2.38;;;19.60;49.30;;;;;;5089763;28;20096;-58
2021/11/21 03:25:27;;;;;;;2.78;2.47;;;19.60;49.30;;;;;;5089872;28;20024;-58
2021/11/21 03:27:53;;;;;;;1.90;1.80;;;19.60;49.30;;;;;;5090130;28;20016;-58
2021/11/21 03:30:20;;;;;;;2.60;2.40;;;19.60;49.30;;;;;;5089640;28;20086;-58
2021/11/21 03:32:47;;;;;;;2.22;2.03;;;19.60;49.30;;;;;;5089582;28;20027;-58
2021/11/21 03:35:12;;;;;;;2.90;2.53;;;19.60;49.30;;;;;;5090046;28;20024;-58
2021/11/21 03:37:38;;;;;;;2.45;2.22;;;19.60;49.30;;;;;;5089476;28;20027;-58
2021/11/21 03:40:05;;;;;;;2.67;2.47;;;19.60;49.30;;;;;;5089189;28;20347;-58
2021/11/21 03:42:31;;;;;;;2.25;2.03;;;19.60;49.30;;;;;;5089831;28;20189;-58
2021/11/21 03:44:56;;;;;;;2.50;2.25;;;19.60;49.30;;;;;;5089295;28;20112;-58
2021/11/21 03:47:22;;;;;;;2.45;2.25;;;19.60;49.30;;;;;;5089203;28;20115;-58
2021/11/21 03:49:47;;;;;;;3.00;2.20;;;19.60;49.30;;;;;;5091791;28;20493;-58
2021/11/21 03:52:13;;;;;;;4.25;2.55;;;19.60;49.30;;;;;;5093188;28;20036;-58
2021/11/21 03:54:39;;;;;;;3.28;2.60;;;19.60;49.30;;;;;;5093498;28;20039;-58
2021/11/21 03:57:05;;;;;;;2.30;2.10;;;19.60;49.30;;;;;;5093570;28;20770;-58
2021/11/21 03:59:30;;;;;;;2.58;2.30;;;19.60;49.30;;;;;;5093097;28;20024;-58
2021/11/21 04:01:58;;;;;;;2.38;2.08;;;19.60;49.30;;;;;;5092983;28;20024;-58
2021/11/21 04:04:25;;;;;;;3.05;2.38;;;19.60;49.30;;;;;;5093166;28;20039;-58
2021/11/21 04:06:51;;;;;;;2.60;2.40;;;19.60;49.40;;;;;;5093205;28;20100;-58
2021/11/21 04:09:16;;;;;;;2.72;2.40;;;19.60;49.30;;;;;;5092394;28;20449;-58
2021/11/21 04:11:42;;;;;;;3.92;2.70;;;19.60;49.40;;;;;;5093085;28;20032;-58
2021/11/21 04:14:07;;;;;;;3.83;2.58;;;19.60;49.30;;;;;;5092586;28;20031;-58
2021/11/21 04:16:33;;;;;;;2.75;2.47;;;19.60;49.30;;;;;;5092650;28;20377;-58
2021/11/21 04:18:58;;;;;;;2.45;2.25;;;19.60;49.30;;;;;;5091311;28;20050;-58
2021/11/21 04:21:24;;;;;;;2.95;2.47;;;19.60;49.40;;;;;;5092542;28;20027;-58
2021/11/21 04:23:50;;;;;;;2.88;2.53;;;19.60;49.30;;;;;;5092870;28;20027;-58
2021/11/21 04:26:15;;;;;;;2.72;2.50;;;19.60;49.40;;;;;;5092687;28;20035;-58
2021/11/21 04:28:41;;;;;;;3.03;2.72;;;19.50;49.30;;;;;;5092658;28;20051;-58
2021/11/21 04:31:07;;;;;;;2.38;2.17;;;19.60;49.40;;;;;;5092382;28;20036;-58
2021/11/21 04:33:32;;;;;;;2.60;2.22;;;19.60;49.40;;;;;;5093012;28;20065;-58
2021/11/21 04:35:58;;;;;;;2.20;1.88;;;19.60;49.40;;;;;;5090992;28;20076;-58
2021/11/21 04:38:24;;;;;;;2.47;2.28;;;19.60;49.40;;;;;;5092297;28;20028;-58
2021/11/21 04:40:51;;;;;;;2.50;2.30;;;19.60;49.40;;;;;;5092408;28;20105;-58
2021/11/21 04:43:17;;;;;;;2.25;2.05;;;19.60;49.40;;;;;;5092312;28;20028;-58
2021/11/21 04:45:42;;;;;;;2.28;2.08;;;19.60;49.40;;;;;;5092629;28;20409;-58
2021/11/21 04:48:08;;;;;;;2.30;2.10;;;19.60;49.40;;;;;;5092066;28;20093;-58
2021/11/21 04:50:33;;;;;;;2.28;2.08;;;19.60;49.40;;;;;;5091858;28;20519;-58
2021/11/21 04:52:59;;;;;;;2.20;2.00;;;19.50;49.30;;;;;;5092289;28;20484;-58
2021/11/21 04:55:25;;;;;;;2.45;2.10;;;19.60;49.40;;;;;;5092331;28;20030;-58
2021/11/21 04:57:50;;;;;;;2.88;2.28;;;19.60;49.40;;;;;;5092415;28;20024;-58
2021/11/21 05:00:18;;;;;;;2.55;2.22;;;19.60;49.40;;;;;;5091706;28;20039;-58
2021/11/21 05:02:44;;;;;;;3.00;2.70;;;19.60;49.40;;;;;;5092400;28;20024;-58
2021/11/21 05:05:09;;;;;;;2.55;2.35;;;19.50;49.40;;;;;;5092003;28;20116;-58
2021/11/21 05:07:35;;;;;;;2.55;2.35;;;19.50;49.30;;;;;;5092304;28;20095;-58
2021/11/21 05:10:01;;;;;;;2.00;1.90;;;19.60;49.40;;;;;;5091761;28;20333;-58
2021/11/21 05:12:26;;;;;;;2.40;2.20;;;19.50;49.30;;;;;;5091811;28;20028;-58
2021/11/21 05:14:54;;;;;;;2.25;2.05;;;19.50;49.30;;;;;;5091685;28;20119;-58
2021/11/21 05:17:19;;;;;;;2.10;1.90;;;19.60;49.40;;;;;;5091652;28;20036;-58
2021/11/21 05:19:45;;;;;;;2.05;1.85;;;19.60;49.40;;;;;;5091718;28;20016;-58
2021/11/21 05:22:10;;;;;;;2.20;2.00;;;19.60;49.40;;;;;;5091753;28;20031;-58
2021/11/21 05:24:36;;;;;;;2.10;1.90;;;19.60;49.40;;;;;;5091905;28;20150;-58
2021/11/21 05:27:01;;;;;;;2.20;2.00;;;19.60;49.40;;;;;;5091766;28;20123;-58
2021/11/21 05:29:27;;;;;;;2.00;1.80;;;19.60;49.40;;;;;;5091389;28;20024;-58
2021/11/21 05:31:52;;;;;;;2.20;2.00;;;19.50;49.40;;;;;;5091431;28;20059;-58
2021/11/21 05:34:18;;;;;;;2.10;1.80;;;19.50;49.40;;;;;;5090061;28;20050;-59
2021/11/21 05:36:44;;;;;;;2.33;2.13;;;19.50;49.30;;;;;;5091500;28;20072;-58
2021/11/21 05:39:10;;;;;;;2.10;1.90;;;19.60;49.40;;;;;;5091578;28;20024;-58
2021/11/21 05:41:35;;;;;;;1.75;1.65;;;19.50;49.40;;;;;;5091626;28;20031;-58
2021/11/21 05:44:01;;;;;;;2.10;1.90;;;19.50;49.40;;;;;;5091469;28;20487;-58
2021/11/21 05:46:26;;;;;;;2.10;1.90;;;19.50;49.40;;;;;;5091114;28;20402;-58
2021/11/21 05:48:53;;;;;;;2.17;1.90;;;19.50;49.40;;;;;;5091067;28;20326;-58
2021/11/21 05:51:19;;;;;;;2.20;1.98;;;19.50;49.40;;;;;;5090739;28;20060;-58
2021/11/21 05:53:44;;;;;;;2.10;1.90;;;19.50;49.40;;;;;;5089717;28;20442;-58
2021/11/21 05:56:10;;;;;;;2.10;1.90;;;19.50;49.40;;;;;;5091041;28;20016;-58
2021/11/21 05:58:35;;;;;;;1.70;1.60;;;19.50;49.40;;;;;;5090898;28;20103;-58
2021/11/21 06:01:01;;;;;;;2.22;2.03;;;19.50;49.40;;;;;;5091082;28;20488;-58
2021/11/21 06:03:27;;;;;;;1.85;1.75;;;19.50;49.40;;;;;;5091034;28;20016;-58
2021/11/21 06:05:52;;;;;;;2.13;1.92;;;19.50;49.40;;;;;;5089462;28;20464;-58
2021/11/21 06:08:18;;;;;;;2.00;1.90;;;19.50;49.40;;;;;;5090749;28;20063;-58
2021/11/21 06:10:44;;;;;;;1.98;1.88;;;19.50;49.40;;;;;;5090723;28;20039;-58
2021/11/21 06:13:09;;;;;;;1.83;1.73;;;19.50;49.40;;;;;;5089795;28;20089;-58
2021/11/21 06:15:35;;;;;;;2.25;2.05;;;19.50;49.40;;;;;;5090768;28;20032;-58
2021/11/21 06:18:00;;;;;;;1.83;1.65;;;19.50;49.40;;;;;;5090582;28;20032;-58
2021/11/21 06:20:26;;;;;;;2.75;1.85;;;19.50;49.40;;;;;;5090542;28;20135;-58
2021/11/21 06:22:52;;;;;;;2.30;1.67;;;19.50;49.40;;;;;;5090670;28;20139;-58
2021/11/21 06:25:17;;;;;;;1.65;1.55;;;19.50;49.40;;;;;;5090669;28;20061;-58
2021/11/21 06:27:43;;;;;;;1.60;1.48;;;19.50;49.40;;;;;;5090388;28;20432;-58
2021/11/21 06:30:08;;;;;;;1.70;1.60;;;19.50;49.40;;;;;;5090254;28;20024;-58
2021/11/21 06:32:34;;;;;;;1.58;1.48;;;19.50;49.40;;;;;;5090333;28;20433;-58
2021/11/21 06:34:59;;;;;;;1.67;1.58;;;19.50;49.50;;;;;;5089193;28;20027;-58
2021/11/21 06:37:25;;;;;;;2.20;2.00;;;19.50;49.40;;;;;;5090154;28;20334;-58
2021/11/21 06:39:50;;;;;;;1.80;1.70;;;19.50;49.40;;;;;;5090120;28;20024;-58
2021/11/21 06:42:16;;;;;;;1.73;1.63;;;19.50;49.40;;;;;;5090462;28;20142;-58
2021/11/21 06:44:41;;;;;;;2.47;1.77;;;19.50;49.40;;;;;;5090047;28;20036;-58
2021/11/21 06:47:07;;;;;;;1.60;1.50;;;19.50;49.40;;;;;;5089902;28;20483;-58
2021/11/21 06:49:33;;;;;;;2.42;1.88;;;19.50;49.50;;;;;;5088502;28;20324;-58
2021/11/21 06:51:59;;;;;;;1.70;1.60;;;19.50;49.50;;;;;;5090117;28;20040;-58
2021/11/21 06:54:24;;;;;;;1.73;1.60;;;19.50;49.40;;;;;;5089899;28;20115;-58
2021/11/21 06:56:50;;;;;;;1.63;1.52;;;19.50;49.40;;;;;;5088411;28;20345;-58
2021/11/21 06:59:16;;;;;;;1.60;1.50;;;19.50;49.40;;;;;;5089539;28;20448;-58
2021/11/21 07:01:41;;;;;;;1.67;1.58;;;19.50;49.50;;;;;;5090086;28;20042;-58
2021/11/21 07:04:08;;;;;;;1.70;1.60;;;19.50;49.40;;;;;;5089777;28;20396;-58
2021/11/21 07:06:34;;;;;;;1.85;1.60;;;19.50;49.50;;;;;;5089500;28;20020;-58
2021/11/21 07:09:00;;;;;;;1.80;1.67;;;19.50;49.50;;;;;;5090013;28;20040;-58
2021/11/21 07:11:26;;;;;;;1.63;1.52;;;19.50;49.40;;;;;;5089366;28;20040;-58
2021/11/21 07:13:51;;;;;;;1.50;1.40;;;19.50;49.50;;;;;;5089628;28;20027;-58
2021/11/21 07:16:17;;;;;;;1.70;1.60;;;19.50;49.50;;;;;;5089743;28;20111;-58
2021/11/21 07:18:42;;;;;;;1.38;1.27;;;19.50;49.50;;;;;;5089896;28;20059;-58
2021/11/21 07:21:08;;;;;;;1.67;1.42;;;19.50;49.50;;;;;;5089753;28;20162;-58
2021/11/21 07:23:34;;;;;;;1.35;1.25;;;19.50;49.50;;;;;;5091570;28;20035;-58
2021/11/21 07:26:00;;;;;;;1.63;1.50;;;19.50;49.50;;;;;;5094122;28;20061;-58
2021/11/21 07:28:25;;;;;;;1.45;1.35;;;19.50;49.50;;;;;;5093541;28;20028;-58
2021/11/21 07:30:51;;;;;;;1.40;1.30;;;19.50;49.50;;;;;;5093414;28;20116;-58
2021/11/21 07:33:16;;;;;;;1.50;1.40;;;19.50;49.50;;;;;;5093561;28;20542;-58
2021/11/21 07:35:42;;;;;;;1.50;1.40;;;19.50;49.50;;;;;;5093681;28;20032;-58
2021/11/21 07:38:07;;;;;;;1.52;1.42;;;19.50;49.50;;;;;;5093551;28;20020;-58
2021/11/21 07:40:33;;;;;;;1.60;1.50;;;19.50;49.50;;;;;;5093663;28;20039;-58
2021/11/21 07:42:58;;;;;;;1.35;1.25;;;19.50;49.50;;;;;;5093558;28;20318;-58
2021/11/21 07:45:24;;;;;;;1.67;1.58;;;19.50;49.50;;;;;;5093175;28;20473;-58
2021/11/21 07:47:49;;;;;;;1.50;1.40;;;19.50;49.50;;;;;;5093429;28;20032;-58
2021/11/21 07:50:15;;;;;;;1.33;1.23;;;19.50;49.50;;;;;;5092953;28;20048;-58
2021/11/21 07:52:41;;;;;;;1.20;1.10;;;19.50;49.50;;;;;;5093699;28;20024;-58
2021/11/21 07:55:07;;;;;;;1.50;1.40;;;19.50;49.50;;;;;;5093400;28;20026;-58
2021/11/21 07:57:33;;;;;;;1.70;1.40;;;19.50;49.50;;;;;;5093339;28;20024;-58
2021/11/21 07:59:58;;;;;;;1.23;1.13;;;19.50;49.60;;;;;;5093017;28;20027;-58
2021/11/21 08:02:24;;;;;;;1.40;1.30;;;19.50;50.20;;;;;;5092831;28;20486;-58
2021/11/21 08:04:49;;;;;;;1.40;1.30;;;19.50;49.50;;;;;;5093014;28;20020;-58
2021/11/21 08:07:15;;;;;;;1.25;1.17;;;19.50;49.50;;;;;;5092919;28;20082;-58
2021/11/21 08:09:40;;;;;;;1.40;1.23;;;19.50;49.50;;;;;;5093196;28;20023;-57
2021/11/21 08:12:06;;;;;;;1.17;0.98;;;19.50;49.50;;;;;;5093221;28;20115;-58
2021/11/21 08:14:32;;;;;;;1.70;1.50;;;19.50;49.50;;;;;;5092382;28;20016;-58
2021/11/21 08:16:57;;;;;;;1.50;1.35;;;19.50;49.50;;;;;;5093034;28;20491;-58
2021/11/21 08:19:23;;;;;;;1.83;1.30;;;19.50;49.50;;;;;;5092843;28;20172;-58
2021/11/21 08:21:48;;;;;;;1.88;1.20;;;19.50;49.50;;;;;;5091608;28;20027;-58
2021/11/21 08:24:14;;;;;;;1.55;1.00;;;19.50;49.60;;;;;;5092594;28;20024;-58
2021/11/21 08:26:39;;;;;;;1.88;1.58;;;19.50;49.50;;;;;;5092523;28;20430;-58
2021/11/21 08:29:05;;;;;;;1.80;1.35;;;19.50;49.60;;;;;;5092596;28;20040;-58
2021/11/21 08:31:31;;;;;;;1.30;1.20;;;19.50;49.60;;;;;;5092579;28;20051;-58
2021/11/21 08:33:56;;;;;;;1.77;1.20;;;19.50;49.50;;;;;;5092440;28;20051;-58
2021/11/21 08:36:22;;;;;;;2.25;1.42;;;19.50;49.50;;;;;;5092109;28;20049;-58
2021/11/21 08:38:47;;;;;;;1.30;1.02;;;19.50;49.50;;;;;;5092420;28;20544;-58
2021/11/21 08:41:13;;;;;;;1.55;1.10;;;19.50;49.60;;;;;;5092428;28;20039;-58
2021/11/21 08:43:38;;;;;;;1.60;1.00;;;19.50;49.60;;;;;;5092627;28;20046;-58
2021/11/21 08:46:04;;;;;;;1.83;1.40;;;19.50;49.50;;;;;;5092044;28;20065;-58
2021/11/21 08:48:31;;;;;;;1.55;1.10;;;19.50;49.50;;;;;;5092421;28;20031;-58
2021/11/21 08:50:57;;;;;;;1.30;1.20;;;19.50;49.50;;;;;;5091908;28;20127;-58
2021/11/21 08:53:22;;;;;;;1.10;1.00;;;19.50;49.50;;;;;;5092264;28;20116;-58
2021/11/21 08:55:48;;;;;;;1.52;1.20;;;19.50;49.50;;;;;;5092348;28;20117;-58
2021/11/21 08:58:13;;;;;;;2.70;1.10;;;19.50;49.50;;;;;;5091891;28;20099;-58
2021/11/21 09:00:39;;;;;;;1.95;1.15;;;19.50;49.50;;;;;;5091966;28;20024;-58
2021/11/21 09:03:04;;;;;;;2.67;1.20;;;19.50;49.50;;;;;;5092223;28;20017;-58
2021/11/21 09:05:30;;;;;;;2.53;1.20;;;19.50;49.50;;;;;;5091992;28;20023;-58
2021/11/21 09:07:55;;;;;;;1.40;1.27;;;19.50;49.40;;;;;;5091973;28;20019;-58
2021/11/21 09:10:21;;;;;;;1.35;1.23;;;19.50;49.40;;;;;;5091351;28;20110;-58
2021/11/21 09:12:47;;;;;;;1.20;1.10;;;19.50;49.40;;;;;;5092039;28;20108;-58
2021/11/21 09:15:16;;;;;;;1.15;1.05;;;19.50;49.40;;;;;;5091837;28;20103;-58
2021/11/21 09:17:43;;;;;;;1.20;1.10;;;19.50;49.40;;;;;;5091659;28;20477;-58
2021/11/21 09:20:09;;;;;;;1.98;1.13;;;19.50;49.40;;;;;;5091692;28;20315;-58
2021/11/21 09:22:34;;;;;;;1.80;1.27;;;19.50;49.40;;;;;;5091394;28;20028;-58
2021/11/21 09:25:00;;;;;;;1.50;1.40;;;19.50;49.40;;;;;;5091854;28;20020;-58
2021/11/21 09:27:25;;;;;;;2.25;1.38;;;19.50;49.40;;;;;;5091448;28;20031;-58
2021/11/21 09:29:51;;;;;;;1.48;1.17;;;19.50;49.40;;;;;;5091145;28;20377;-58
2021/11/21 09:32:16;;;;;;;2.55;1.30;;;19.50;49.30;;;;;;5091463;28;20060;-58
2021/11/21 09:34:42;;;;;;;2.63;1.20;;;19.50;49.40;;;;;;5089951;28;20102;-58
2021/11/21 09:37:07;;;;;;;1.50;1.13;;;19.50;49.30;;;;;;5091541;28;20236;-58
2021/11/21 09:39:33;;;;;;;1.80;1.20;;;19.50;49.30;;;;;;5091272;28;20016;-58
2021/11/21 09:41:59;;;;;;;1.33;0.90;;;19.50;49.30;;;;;;5091301;28;20047;-58
2021/11/21 09:44:25;;;;;;;1.70;1.27;;;19.50;49.30;;;;;;5090874;28;20020;-58
2021/11/21 09:46:52;;;;;;;2.13;1.33;;;19.50;49.30;;;;;;5091035;28;20078;-58
2021/11/21 09:49:18;;;;;;;1.20;1.13;;;19.50;49.30;;;;;;5090654;28;20024;-58
2021/11/21 09:51:45;;;;;;;2.45;1.15;;;19.60;49.30;;;;;;5091071;28;20043;-58
2021/11/21 09:54:10;;;;;;;1.38;1.10;;;19.60;49.40;;;;;;5091489;28;20039;-58
2021/11/21 09:56:36;;;;;;;1.23;1.08;;;19.50;49.30;;;;;;5090801;28;20086;-58
2021/11/21 09:59:02;;;;;;;1.13;1.00;;;19.50;49.30;;;;;;5090755;28;20012;-58
2021/11/21 10:01:48;;;;;;;3.20;1.30;;;19.50;49.20;;;;;;5090618;28;20027;-58
2021/11/21 10:04:18;;;;;;;2.08;1.10;;;19.60;49.30;;;;;;5091037;28;20016;-58
2021/11/21 10:06:48;;;;;;;1.25;1.02;;;19.50;49.20;;;;;;5090972;28;20036;-58
2021/11/21 10:09:18;;;;;;;2.28;1.17;;;19.50;49.20;;;;;;5090882;28;20427;-58
2021/11/21 10:12:04;;;;;;;3.15;1.23;;;19.50;49.20;;;;;;5090269;28;20440;-58
2021/11/21 10:14:31;;;;;;;1.05;1.00;;;19.50;49.20;;;;;;5090552;28;20508;-58
2021/11/21 10:16:56;;;;;;;3.20;1.10;;;19.50;49.20;;;;;;5090934;28;20107;-58
2021/11/21 10:19:22;;;;;;;1.67;1.30;;;19.50;49.20;;;;;;5088843;28;20071;-58
2021/11/21 10:21:55;;;;;;;2.10;0.80;;;19.60;49.20;;;;;;5090951;28;20107;-58
2021/11/21 10:24:34;;;;;;;;;;;19.50;49.20;;;;;;5090780;28;20110;-58
2021/11/21 10:27:07;;;;;;;2.38;1.30;;;19.50;49.30;;;;;;5090597;28;20310;-58
2021/11/21 10:29:35;;;;;;;1.63;0.93;;;19.50;49.30;;;;;;5090296;28;20383;-58
2021/11/21 10:32:02;;;;;;;1.05;0.90;;;19.50;49.30;;;;;;5089000;28;20343;-58
2021/11/21 10:34:28;;;;;;;1.40;1.17;;;19.50;49.30;;;;;;5090109;28;20563;-58
2021/11/21 10:36:54;;;;;;;1.00;1.00;;;19.50;49.20;;;;;;5088840;28;20184;-58
2021/11/21 10:39:25;;;;;;;1.67;0.93;;;19.50;49.20;;;;;;5089176;28;20051;-58
2021/11/21 10:41:52;;;;;;;1.67;1.05;;;19.50;49.20;;;;;;5090328;28;20045;-58
2021/11/21 10:44:20;;;;;;;1.00;0.77;;;19.60;49.20;;;;;;5072572;28;20055;-58
2021/11/21 10:46:51;;;;;;;1.08;0.98;;;19.60;49.20;;;;;;5090345;28;20028;-58
2021/11/21 10:49:24;;;;;;;2.47;1.00;;;19.50;49.10;;;;;;5090004;28;20107;-58
2021/11/21 10:52:08;;;;;;;1.38;1.20;;;19.50;49.10;;;;;;5090312;28;20039;-58
2021/11/21 10:54:44;;;;;;;0.90;0.90;;;19.60;49.20;;;;;;5090200;28;20036;-58
2021/11/21 10:57:21;;;;;;;1.30;1.08;;;19.60;49.10;;;;;;5090060;28;20020;-58
2021/11/21 10:59:54;;;;;;;1.90;1.00;;;19.60;49.10;;;;;;5090223;28;20020;-58
2021/11/21 11:02:26;;;;;;;;;;;19.60;49.10;;;;;;5088937;28;20461;-58
2021/11/21 11:05:12;;;;;;;1.20;0.90;;;19.60;49.20;;;;;;5090231;28;19926;-58
2021/11/21 11:07:46;;;;;;;1.52;0.93;;;19.60;49.30;;;;;;5089865;28;20107;-58
2021/11/21 11:10:25;;;;;;;1.27;0.90;;;19.60;49.20;;;;;;5089978;28;20054;-58
2021/11/21 11:12:51;;;;;;;1.52;1.10;;;19.60;49.20;;;;;;5090197;28;20098;-58
2021/11/21 11:15:17;;;;;;;0.88;0.85;;;19.60;49.10;;;;;;5090170;28;20024;-58
2021/11/21 11:17:43;;;;;;;1.13;1.02;;;19.60;49.10;;;;;;5090052;28;20063;-58
2021/11/21 11:20:10;;;;;;;1.15;0.90;;;19.60;49.10;;;;;;5090203;28;20024;-58
2021/11/21 11:22:37;;;;;;;1.02;0.80;;;19.60;49.00;;;;;;5089918;28;20039;-58
2021/11/21 11:25:05;;;;;;;0.80;0.70;;;19.70;49.10;;;;;;5089836;28;20054;-58
2021/11/21 11:27:52;;;;;;;1.13;0.75;;;19.70;49.00;;;;;;5090014;28;20036;-58
2021/11/21 11:30:18;;;;;;;1.55;1.10;;;19.70;49.20;;;;;;5089590;28;20032;-58
2021/11/21 11:32:44;;;;;;;1.33;0.90;;;19.70;49.00;;;;;;5089930;28;20094;-58
2021/11/21 11:35:18;;;;;;;1.42;0.80;;;19.70;48.90;;;;;;5089623;28;20024;-58
2021/11/21 11:37:48;;;;;;;1.17;1.00;;;19.70;49.00;;;;;;5089741;28;20188;-58
2021/11/21 11:40:29;;;;;;;1.33;1.00;;;19.70;48.90;;;;;;5089613;28;20012;-58
2021/11/21 11:42:55;;;;;;;1.38;1.13;;;19.70;48.90;;;;;;5089508;28;20096;-58
2021/11/21 11:45:49;;;;;;;1.10;1.00;;;19.80;48.80;;;;;;5089888;28;20021;-58
2021/11/21 11:48:33;;;;;;;1.35;1.00;;;19.80;48.90;;;;;;5089594;28;20077;-58
2021/11/21 11:51:00;;;;;;;2.03;1.00;;;19.80;48.90;;;;;;5087956;28;20513;-58
2021/11/21 11:53:42;;;;;;;0.85;0.85;;;19.80;48.80;;;;;;5089810;28;20177;-58
2021/11/21 11:56:21;;;;;;;1.08;0.88;;;19.80;48.80;;;;;;5088274;28;20020;-58
2021/11/21 11:58:57;;;;;;;1.48;0.90;;;19.80;48.90;;;;;;5088159;28;20233;-58
2021/11/21 12:01:38;;;;;;;0.85;0.85;;;19.80;48.80;;;;;;5089595;28;20081;-58
2021/11/21 12:04:16;;;;;;;0.98;0.88;;;19.80;48.80;;;;;;5089329;28;20027;-58
2021/11/21 12:06:48;;;;;;;0.88;0.88;;;19.80;48.80;;;;;;5089493;28;20060;-58
2021/11/21 12:09:19;;;;;;;1.20;0.82;;;19.80;48.70;;;;;;5089221;28;20478;-58
2021/11/21 12:12:03;;;;;;;1.13;0.90;;;19.80;48.70;;;;;;5092800;28;20043;-58
2021/11/21 12:14:34;;;;;;;2.00;0.98;;;19.80;48.80;;;;;;5093064;28;20111;-58
2021/11/21 12:17:07;;;;;;;1.65;0.85;;;19.80;48.70;;;;;;5092727;28;20031;-58
2021/11/21 12:19:52;;;;;;;;;;;19.90;48.80;;;;;;5093575;28;20031;-58
2021/11/21 12:22:24;;;;;;;1.80;1.00;;;19.90;48.90;;;;;;5092774;28;20394;-58
2021/11/21 12:24:50;;;;;;;0.90;0.80;;;19.80;48.80;;;;;;5092857;28;20024;-58
2021/11/21 12:27:17;;;;;;;1.83;1.00;;;19.80;48.80;;;;;;5092797;28;20393;-58
2021/11/21 12:29:44;;;;;;;0.93;0.70;;;19.80;48.70;;;;;;5092543;28;20096;-58
2021/11/21 12:32:24;;;;;;;0.98;0.90;;;19.80;48.70;;;;;;5091298;28;20039;-58
2021/11/21 12:34:50;;;;;;;1.10;1.00;;;19.90;48.80;;;;;;5092482;28;20448;-58
2021/11/21 12:37:17;;;;;;;1.10;1.00;;;19.90;48.80;;;;;;5091358;28;20095;-58
2021/11/21 12:39:50;;;;;;;1.88;0.80;;;19.90;48.70;;;;;;5092416;28;20381;-58
2021/11/21 12:42:17;;;;;;;1.50;0.70;;;19.90;48.70;;;;;;5092493;28;20423;-58
2021/11/21 12:44:43;;;;;;;1.02;0.80;;;19.90;48.70;;;;;;5092543;28;20051;-58
2021/11/21 12:47:09;;;;;;;1.45;1.25;;;19.90;48.60;;;;;;5092214;28;20418;-58